Time;durP1;ratioP1;P1;durP2;ratioP2;P2;SDS_P1;SDS_P2;PMS_P1;PMS_P2;Temp;Humidity;BMP_temperature;BMP_pressure;BME280_temperature;BME280_humidity;BME280_pressure;Samples;Min_cycle;Max_cycle;Signal;HPM_P1;HPM_P2
2023/08/31 00:00:11;;;;;;;13.60;9.13;;;;;;;-145.63;54.18;39151.38;5036042;28;20079;-70
2023/08/31 00:02:40;;;;;;;14.45;10.27;;;;;;;-145.63;54.48;39153.31;5032506;28;20092;-70
2023/08/31 00:05:06;;;;;;;13.57;10.27;;;;;;;-145.63;54.51;39176.78;5032282;28;20041;-69
2023/08/31 00:07:32;;;;;;;12.07;10.20;;;;;;;-145.63;55.17;39149.41;5039022;28;20089;-70
2023/08/31 00:10:06;;;;;;;14.80;10.07;;;;;;;-145.63;55.28;39168.97;5028662;28;20071;-69
2023/08/31 00:12:31;;;;;;;13.10;10.35;;;;;;;-145.63;54.96;39147.44;5035443;28;20037;-70
2023/08/31 00:14:57;;;;;;;13.80;10.65;;;;;;;-145.63;55.40;39155.28;5029516;28;20068;-69
2023/08/31 00:17:23;;;;;;;15.10;11.52;;;;;;;-145.63;55.29;39131.81;5031977;28;20053;-69
2023/08/31 00:19:49;;;;;;;15.40;11.05;;;;;;;-145.63;55.52;39168.97;5038884;28;20314;-69
2023/08/31 00:22:15;;;;;;;13.88;10.95;;;;;;;-145.63;55.13;39141.59;5027644;28;20085;-70
2023/08/31 00:24:41;;;;;;;12.68;10.98;;;;;;;-145.63;55.07;39168.97;5034206;28;20064;-69
2023/08/31 00:27:10;;;;;;;15.35;11.40;;;;;;;-145.63;55.13;39161.13;5042597;28;20044;-69
2023/08/31 00:29:38;;;;;;;14.68;11.57;;;;;;;-145.63;55.59;39145.50;5033877;28;20254;-70
2023/08/31 00:32:05;;;;;;;18.35;11.38;;;;;;;-145.63;54.87;39135.72;5035955;28;20056;-70
2023/08/31 00:34:31;;;;;;;14.43;11.40;;;;;;;-145.63;54.86;39174.84;5025891;28;20037;-70
2023/08/31 00:36:56;;;;;;;15.07;11.43;;;;;;;-145.63;54.78;39170.91;5032780;28;20018;-70
2023/08/31 00:39:22;;;;;;;14.50;11.05;;;;;;;-145.63;54.76;39127.91;5042519;28;20032;-70
2023/08/31 00:41:48;;;;;;;13.80;11.35;;;;;;;-145.63;54.78;39145.50;5035782;28;20428;-69
2023/08/31 00:44:14;;;;;;;14.95;10.93;;;;;;;-145.63;54.39;39159.19;5045434;28;20037;-68
2023/08/31 00:46:40;;;;;;;18.40;11.02;;;;;;;-145.63;54.00;39129.84;5043936;28;20036;-69
2023/08/31 00:49:08;;;;;;;12.05;10.13;;;;;;;-145.63;54.12;39133.75;5042584;28;20337;-69
2023/08/31 00:51:34;;;;;;;13.60;10.90;;;;;;;-145.63;54.67;39167.00;5044734;28;20025;-70
2023/08/31 00:54:00;;;;;;;16.25;12.18;;;;;;;-145.63;54.86;39122.03;5036596;28;20240;-69
2023/08/31 00:56:28;;;;;;;14.20;11.23;;;;;;;-145.63;54.98;39145.50;5031281;28;20069;-69
2023/08/31 00:58:57;;;;;;;16.42;12.48;;;;;;;-145.63;55.35;39151.38;5023955;28;20021;-69
2023/08/31 01:01:35;;;;;;;18.73;12.60;;;;;;;-145.63;55.04;39137.69;5041042;28;20030;-69
2023/08/31 01:04:24;;;;;;;20.60;13.02;;;;;;;-145.63;55.13;39122.03;5032740;28;20099;-69
2023/08/31 01:07:08;;;;;;;18.63;13.07;;;;;;;-145.63;55.47;39151.38;5025627;28;20041;-69
2023/08/31 01:10:09;;;;;;;18.10;12.80;;;;;;;-145.63;55.70;39168.97;5043906;28;20071;-69
2023/08/31 01:12:44;;;;;;;15.18;12.35;;;;;;;-145.63;55.43;38326.16;4988325;28;20042;-69
2023/08/31 01:15:15;;;;;;;16.77;12.15;;;;;;;-145.63;55.36;39159.19;5035561;28;20022;-69
2023/08/31 01:17:47;;;;;;;16.77;12.30;;;;;;;-145.63;55.04;39129.84;5034190;28;20037;-69
2023/08/31 01:20:19;;;;;;;18.73;12.88;;;;;;;-145.63;55.51;39186.56;5016804;28;20033;-69
2023/08/31 01:23:04;;;;;;;16.67;13.23;;;;;;;-145.63;55.42;39141.59;5026689;28;20307;-68
2023/08/31 01:25:32;;;;;;;17.13;12.02;;;;;;;-145.63;55.47;39122.03;5025787;28;20341;-69
2023/08/31 01:27:59;;;;;;;14.77;12.63;;;;;;;-145.63;55.67;39139.63;5027332;28;20042;-69
2023/08/31 01:30:25;;;;;;;18.67;12.68;;;;;;;-145.63;55.87;39157.22;5029484;28;20195;-68
2023/08/31 01:32:50;;;;;;;14.35;12.68;;;;;;;-145.63;55.97;39192.44;5020802;28;20022;-69
2023/08/31 01:35:17;;;;;;;16.73;12.73;;;;;;;-145.63;55.95;39170.91;5027899;28;20045;-69
2023/08/31 01:38:01;;;;;;;14.27;12.30;;;;;;;-145.63;56.29;39188.53;5032459;28;20021;-69
2023/08/31 01:40:39;;;;;;;18.02;13.27;;;;;;;-145.63;56.22;39170.91;5015588;28;20035;-69
2023/08/31 01:43:06;;;;;;;16.42;13.23;;;;;;;-145.63;56.35;39223.72;5026002;28;20356;-69
2023/08/31 01:45:37;;;;;;;17.50;12.48;;;;;;;-145.63;56.07;39176.78;5040882;28;20368;-69
2023/08/31 01:48:04;;;;;;;19.08;13.68;;;;;;;-145.63;56.21;39170.91;5032798;28;20061;-68
2023/08/31 01:50:30;;;;;;;16.75;12.27;;;;;;;-145.63;56.36;39161.13;5041174;28;20025;-70
2023/08/31 01:52:58;;;;;;;17.08;12.43;;;;;;;-145.63;55.88;39157.22;5041134;28;20033;-69
2023/08/31 01:55:24;;;;;;;15.02;11.88;;;;;;;-145.63;55.37;39182.66;5037480;28;20344;-70
2023/08/31 01:57:50;;;;;;;16.92;12.88;;;;;;;-145.63;56.05;39163.09;5041190;28;20029;-70
2023/08/31 02:00:19;;;;;;;16.50;12.18;;;;;;;-145.63;56.28;39188.53;5028498;28;20026;-70
2023/08/31 02:02:45;;;;;;;15.63;12.20;;;;;;;-145.63;56.30;39188.53;5040409;28;20306;-70
2023/08/31 02:05:10;;;;;;;15.73;12.57;;;;;;;-145.63;56.26;39161.13;5038890;28;20029;-70
2023/08/31 02:07:36;;;;;;;16.75;11.75;;;;;;;-145.63;55.93;39163.09;5037097;28;20301;-71
2023/08/31 02:10:06;;;;;;;16.17;12.15;;;;;;;-145.63;55.91;39217.84;5041575;28;20049;-71
2023/08/31 02:12:33;;;;;;;16.40;12.48;;;;;;;-145.63;56.14;39174.84;5025272;28;20139;-70
2023/08/31 02:14:59;;;;;;;15.50;11.98;;;;;;;-145.63;56.08;39215.91;5039592;28;20021;-71
2023/08/31 02:17:25;;;;;;;14.55;11.70;;;;;;;-145.63;56.55;39188.53;5034129;28;20087;-72
2023/08/31 02:19:51;;;;;;;15.85;11.65;;;;;;;-145.63;55.91;39174.84;5036037;28;20033;-68
2023/08/31 02:22:17;;;;;;;15.80;12.05;;;;;;;-145.63;56.61;39192.44;5040437;28;20083;-69
2023/08/31 02:24:42;;;;;;;15.93;11.43;;;;;;;-145.63;56.37;39204.16;5044076;28;20038;-68
2023/08/31 02:27:08;;;;;;;13.25;11.35;;;;;;;-145.63;56.68;39223.72;5038791;28;20026;-69
2023/08/31 02:29:33;;;;;;;13.93;11.77;;;;;;;-145.63;56.51;39235.47;5035459;28;20026;-67
2023/08/31 02:31:59;;;;;;;14.65;11.82;;;;;;;-145.63;56.78;39194.38;5035069;28;20076;-68
2023/08/31 02:34:25;;;;;;;14.13;11.90;;;;;;;-145.63;56.71;39198.31;5042397;28;20132;-69
2023/08/31 02:36:51;;;;;;;14.77;12.30;;;;;;;-145.63;56.82;39196.34;5030152;28;20025;-68
2023/08/31 02:39:16;;;;;;;15.90;13.65;;;;;;;-145.63;56.97;39223.72;5038445;28;20091;-69
2023/08/31 02:41:42;;;;;;;16.55;12.43;;;;;;;-145.63;57.20;39210.03;5023741;28;20056;-68
2023/08/31 02:44:07;;;;;;;20.60;13.77;;;;;;;-145.63;57.07;39186.56;5034537;28;20030;-68
2023/08/31 02:46:33;;;;;;;24.02;15.07;;;;;;;-145.63;57.75;39206.13;5042328;28;20029;-68
2023/08/31 02:48:59;;;;;;;17.83;13.73;;;;;;;-145.63;57.65;39208.06;5029899;28;20021;-69
2023/08/31 02:51:24;;;;;;;19.13;14.25;;;;;;;-145.63;57.18;39215.91;5037475;28;20320;-68
2023/08/31 02:53:50;;;;;;;22.08;15.05;;;;;;;-145.63;57.20;39219.81;5032950;28;20030;-68
2023/08/31 02:56:16;;;;;;;21.52;15.50;;;;;;;-145.63;57.25;39219.81;5034105;28;20022;-69
2023/08/31 02:58:41;;;;;;;25.95;16.70;;;;;;;-145.63;57.55;39213.94;5033120;28;20040;-68
2023/08/31 03:01:11;;;;;;;21.77;15.65;;;;;;;-145.63;57.84;39200.25;5043958;28;20031;-67
2023/08/31 03:03:42;;;;;;;22.08;15.73;;;;;;;-145.63;57.90;39204.16;5030296;28;20191;-68
2023/08/31 03:06:08;;;;;;;22.27;15.48;;;;;;;-145.63;57.56;39258.94;5030507;28;20060;-67
2023/08/31 03:08:35;;;;;;;20.33;16.08;;;;;;;-145.63;57.80;39212.00;5032914;28;20214;-69
2023/08/31 03:11:02;;;;;;;20.00;16.15;;;;;;;-145.63;57.35;39206.13;5039431;28;20057;-68
2023/08/31 03:13:28;;;;;;;18.90;15.88;;;;;;;-145.63;57.70;39233.50;5031203;28;20037;-68
2023/08/31 03:15:54;;;;;;;18.30;15.18;;;;;;;-145.63;57.34;39217.84;5037804;28;20026;-68
2023/08/31 03:18:19;;;;;;;19.27;14.85;;;;;;;-145.63;57.77;39176.78;5042252;28;20087;-67
2023/08/31 03:20:45;;;;;;;17.95;15.40;;;;;;;-145.63;57.46;39204.16;5035201;28;20037;-68
2023/08/31 03:23:11;;;;;;;21.70;15.57;;;;;;;-145.63;57.51;39190.47;5031791;28;20034;-68
2023/08/31 03:25:36;;;;;;;19.08;15.02;;;;;;;-145.63;57.15;39192.44;5035383;28;20417;-68
2023/08/31 03:28:03;;;;;;;19.38;15.27;;;;;;;-145.63;57.22;39176.78;5028568;28;20266;-70
2023/08/31 03:30:28;;;;;;;18.58;14.88;;;;;;;-145.63;57.07;39192.44;5022548;28;20034;-68
2023/08/31 03:32:54;;;;;;;19.95;15.07;;;;;;;-145.63;56.95;39194.38;5025872;28;20332;-69
2023/08/31 03:35:19;;;;;;;23.63;14.98;;;;;;;-145.63;56.82;39178.75;5043214;28;20333;-68
2023/08/31 03:37:48;;;;;;;17.40;14.55;;;;;;;-145.63;56.94;39206.13;5033387;28;20029;-69
2023/08/31 03:40:14;;;;;;;20.65;15.23;;;;;;;-145.63;57.09;39217.84;5023589;28;20026;-69
2023/08/31 03:42:39;;;;;;;21.15;15.13;;;;;;;-145.63;56.99;39196.34;5039691;28;20029;-69
2023/08/31 03:45:05;;;;;;;21.70;15.02;;;;;;;-145.63;56.55;39188.53;5034171;28;20017;-68
2023/08/31 03:47:31;;;;;;;18.08;14.30;;;;;;;-145.63;56.53;39184.59;5034217;28;20037;-70
2023/08/31 03:49:56;;;;;;;17.23;13.90;;;;;;;-145.63;56.48;39172.88;5030649;28;20084;-70
2023/08/31 03:52:23;;;;;;;17.80;14.05;;;;;;;-145.63;56.26;39184.59;5035375;28;20040;-70
2023/08/31 03:54:49;;;;;;;18.48;13.50;;;;;;;-145.63;56.71;39163.09;5040296;28;20088;-69
2023/08/31 03:57:14;;;;;;;20.42;14.15;;;;;;;-145.63;56.49;39161.13;5033761;28;20018;-70
2023/08/31 03:59:40;;;;;;;23.50;13.57;;;;;;;-145.63;56.25;39217.84;5024822;28;20068;-69
2023/08/31 04:02:06;;;;;;;19.08;14.27;;;;;;;-145.63;56.20;39141.59;5038804;28;20025;-69
2023/08/31 04:04:32;;;;;;;16.67;13.35;;;;;;;-145.63;56.24;39163.09;5037677;28;20033;-70
2023/08/31 04:06:58;;;;;;;17.05;13.48;;;;;;;-145.63;56.06;39153.31;5041070;28;20025;-69
2023/08/31 04:09:23;;;;;;;16.25;13.35;;;;;;;-145.63;56.25;39153.31;5034384;28;20191;-69
2023/08/31 04:11:49;;;;;;;17.35;13.82;;;;;;;-145.63;55.82;39159.19;5040824;28;20021;-70
2023/08/31 04:14:14;;;;;;;16.25;12.45;;;;;;;-145.63;55.41;39133.75;5041464;28;20029;-71
2023/08/31 04:16:40;;;;;;;16.27;13.38;;;;;;;-145.63;55.51;38746.56;5041338;28;20075;-69
2023/08/31 04:19:05;;;;;;;17.90;12.80;;;;;;;-145.63;55.40;39137.69;5033138;28;20333;-70
2023/08/31 04:21:31;;;;;;;17.30;13.10;;;;;;;-145.63;55.57;39112.25;5036568;28;20032;-68
2023/08/31 04:23:59;;;;;;;17.52;13.38;;;;;;;-145.63;55.26;39122.03;5038339;28;20056;-67
2023/08/31 04:26:25;;;;;;;23.65;13.35;;;;;;;-145.63;54.92;38897.13;5039868;28;20046;-68
2023/08/31 04:28:50;;;;;;;15.65;12.60;;;;;;;-145.63;54.85;39102.47;5040754;28;20062;-69
2023/08/31 04:31:16;;;;;;;19.27;12.45;;;;;;;-145.63;54.77;39102.47;5039730;28;20035;-69
2023/08/31 04:33:41;;;;;;;15.30;11.63;;;;;;;-145.63;54.46;39112.25;5035010;28;20029;-70
2023/08/31 04:36:07;;;;;;;17.05;12.32;;;;;;;-145.63;54.42;39110.28;5036760;28;20025;-70
2023/08/31 04:38:34;;;;;;;16.92;11.98;;;;;;;-145.63;54.32;39094.66;5030314;28;20025;-70
2023/08/31 04:41:00;;;;;;;15.63;12.40;;;;;;;-145.63;54.06;39028.16;5029442;28;20044;-70
2023/08/31 04:43:27;;;;;;;19.35;12.20;;;;;;;-145.63;53.97;39063.34;5026779;28;20110;-69
2023/08/31 04:45:53;;;;;;;18.17;12.23;;;;;;;-145.63;53.66;39071.19;5026606;28;20037;-69
2023/08/31 04:48:19;;;;;;;18.92;12.38;;;;;;;-145.63;53.75;39061.41;5027198;28;20092;-69
2023/08/31 04:50:44;;;;;;;18.23;12.43;;;;;;;-145.63;53.73;39051.63;5032195;28;20026;-69
2023/08/31 04:53:10;;;;;;;14.77;12.57;;;;;;;-145.63;53.78;39037.94;5038090;28;20025;-68
2023/08/31 04:55:35;;;;;;;17.95;12.13;;;;;;;-145.63;53.75;39069.22;5034694;28;20028;-69
2023/08/31 04:58:01;;;;;;;17.35;12.82;;;;;;;-145.63;53.73;39047.72;5031198;28;20058;-69
2023/08/31 05:00:27;;;;;;;14.88;11.45;;;;;;;-145.63;53.46;39057.50;5030796;28;20245;-67
2023/08/31 05:02:52;;;;;;;14.55;11.25;;;;;;;-145.63;53.38;39020.34;5029878;28;20037;-67
2023/08/31 05:05:21;;;;;;;15.55;11.68;;;;;;;-145.63;53.78;39041.84;5025859;28;20030;-67
2023/08/31 05:07:46;;;;;;;19.98;12.48;;;;;;;-145.63;53.71;38865.84;5026278;28;20026;-67
2023/08/31 05:10:12;;;;;;;18.85;12.60;;;;;;;-145.63;53.60;38891.28;5028567;28;20049;-67
2023/08/31 05:12:37;;;;;;;16.70;11.57;;;;;;;-145.63;53.47;39043.81;5039469;28;20017;-69
2023/08/31 05:15:03;;;;;;;19.38;12.38;;;;;;;-145.63;53.15;39016.44;5038824;28;20093;-68
2023/08/31 05:17:30;;;;;;;14.52;11.38;;;;;;;-145.63;53.08;39051.63;5026485;28;20049;-66
2023/08/31 05:19:56;;;;;;;14.82;11.15;;;;;;;-145.63;53.25;39047.72;5028817;28;20029;-66
2023/08/31 05:22:22;;;;;;;17.35;11.75;;;;;;;-145.63;53.48;39016.44;5027994;28;20053;-67
2023/08/31 05:24:48;;;;;;;15.80;11.15;;;;;;;-145.63;53.11;38989.03;5026196;28;20046;-65
2023/08/31 05:27:13;;;;;;;15.65;11.95;;;;;;;-145.63;53.05;39024.25;5025898;28;20042;-66
2023/08/31 05:29:39;;;;;;;14.85;11.32;;;;;;;-145.63;52.60;39002.72;5039507;28;20265;-67
2023/08/31 05:32:05;;;;;;;15.13;11.70;;;;;;;-145.63;52.57;39000.78;5041981;28;20042;-66
2023/08/31 05:34:33;;;;;;;15.90;11.65;;;;;;;-145.63;52.56;38989.03;5034994;28;20047;-67
2023/08/31 05:36:58;;;;;;;15.80;11.93;;;;;;;-145.63;52.38;38955.81;5039834;28;20210;-67
2023/08/31 05:39:24;;;;;;;14.57;10.55;;;;;;;-145.63;52.51;38938.19;5031225;28;20033;-66
2023/08/31 05:41:50;;;;;;;19.25;11.88;;;;;;;-145.63;52.10;38910.81;5037342;28;20029;-67
2023/08/31 05:44:16;;;;;;;15.45;10.85;;;;;;;-145.63;51.70;38951.88;5040719;28;20030;-67
2023/08/31 05:46:42;;;;;;;14.77;10.30;;;;;;;-145.63;51.73;38949.94;5035818;28;20229;-67
2023/08/31 05:49:08;;;;;;;14.27;10.45;;;;;;;-145.63;51.03;38883.44;5033567;28;20261;-66
2023/08/31 05:51:34;;;;;;;14.45;11.60;;;;;;;-145.63;50.87;38936.25;5030564;28;20040;-67
2023/08/31 05:54:00;;;;;;;15.63;10.82;;;;;;;-145.63;50.38;38928.44;5038558;28;20033;-66
2023/08/31 05:56:25;;;;;;;13.38;10.40;;;;;;;-145.63;50.08;38940.16;5039055;28;20230;-67
2023/08/31 05:58:54;;;;;;;14.95;11.07;;;;;;;-145.63;49.85;38842.38;5033631;28;20033;-67
2023/08/31 06:01:21;;;;;;;11.35;9.57;;;;;;;-145.63;49.99;38861.94;5040056;28;20025;-67
2023/08/31 06:03:48;;;;;;;13.80;10.45;;;;;;;-145.63;49.57;38871.72;5029485;28;20030;-67
2023/08/31 06:06:14;;;;;;;14.90;10.43;;;;;;;-145.63;49.48;38856.06;5036765;28;20238;-68
2023/08/31 06:08:39;;;;;;;14.35;10.43;;;;;;;-145.63;50.05;38785.66;5036451;28;20033;-68
2023/08/31 06:11:05;;;;;;;13.13;10.20;;;;;;;-145.63;49.24;38856.06;5034257;28;20072;-66
2023/08/31 06:13:31;;;;;;;28.48;10.63;;;;;;;-145.63;49.39;38828.69;5037731;28;20026;-67
2023/08/31 06:15:57;;;;;;;21.13;10.88;;;;;;;-145.63;49.92;38789.59;5028269;28;20036;-69
2023/08/31 06:18:23;;;;;;;13.82;11.77;;;;;;;-145.63;49.26;38846.28;5037560;28;20407;-66
2023/08/31 06:20:49;;;;;;;15.77;11.68;;;;;;;-145.63;49.35;38838.47;5035435;28;20029;-66
2023/08/31 06:23:15;;;;;;;13.70;10.00;;;;;;;-145.63;49.09;38809.13;5026551;28;20107;-67
2023/08/31 06:25:40;;;;;;;13.95;9.23;;;;;;;-145.63;49.09;38801.31;5024843;28;20021;-65
2023/08/31 06:28:08;;;;;;;13.98;9.52;;;;;;;-145.63;48.69;38795.44;5027814;28;20322;-68
2023/08/31 06:30:34;;;;;;;14.73;9.93;;;;;;;-145.63;48.25;38789.59;5029363;28;20030;-67
2023/08/31 06:33:00;;;;;;;13.30;10.35;;;;;;;-145.63;48.42;38787.63;5023402;28;20256;-67
2023/08/31 06:35:26;;;;;;;18.60;10.93;;;;;;;-145.63;48.32;38725.06;5024606;28;20026;-66
2023/08/31 06:37:51;;;;;;;16.70;9.75;;;;;;;-145.63;48.35;38773.94;5018587;28;20069;-65
2023/08/31 06:40:17;;;;;;;17.85;9.65;;;;;;;-145.63;48.44;38727.00;5020317;28;20025;-66
2023/08/31 06:42:42;;;;;;;16.35;9.48;;;;;;;-145.63;48.17;38740.69;5020584;28;20030;-66
2023/08/31 06:45:08;;;;;;;13.10;9.70;;;;;;;-145.63;48.28;38723.09;5017812;28;20022;-66
2023/08/31 06:47:34;;;;;;;14.35;9.70;;;;;;;-145.63;47.95;38736.78;5019741;28;20025;-66
2023/08/31 06:50:00;;;;;;;15.18;10.10;;;;;;;-145.63;48.09;38717.22;5024734;28;20030;-67
2023/08/31 06:52:26;;;;;;;10.85;9.43;;;;;;;-145.63;47.72;38674.22;5033289;28;20108;-66
2023/08/31 06:54:55;;;;;;;13.80;9.30;;;;;;;-145.63;47.54;38695.72;5039566;28;20024;-66
2023/08/31 06:57:22;;;;;;;13.18;9.85;;;;;;;-145.63;47.59;38711.38;5026701;28;20188;-66
2023/08/31 06:59:48;;;;;;;12.43;8.75;;;;;;;-145.63;47.76;38652.69;5028876;28;20100;-66
2023/08/31 07:02:13;;;;;;;12.52;9.63;;;;;;;-145.63;47.49;38652.69;5019100;28;20030;-65
2023/08/31 07:04:39;;;;;;;15.10;10.20;;;;;;;-145.63;47.28;38633.16;5020369;28;20090;-65
2023/08/31 07:07:05;;;;;;;14.07;9.63;;;;;;;-145.63;46.88;38611.63;5021647;28;20029;-67
2023/08/31 07:09:30;;;;;;;14.88;8.68;;;;;;;-145.63;46.53;38666.38;5020644;28;20030;-67
2023/08/31 07:11:58;;;;;;;12.43;9.05;;;;;;;-145.63;46.79;38656.59;5018722;28;20029;-67
2023/08/31 07:14:24;;;;;;;11.45;9.38;;;;;;;-145.63;47.03;38607.72;5023058;28;20036;-65
2023/08/31 07:16:50;;;;;;;13.10;8.80;;;;;;;-145.63;46.02;38617.50;5020499;28;20021;-67
2023/08/31 07:19:15;;;;;;;12.25;8.88;;;;;;;-145.63;46.06;38613.59;5020158;28;20026;-67
2023/08/31 07:21:41;;;;;;;14.13;9.13;;;;;;;-145.63;45.45;38603.81;5017442;28;20080;-66
2023/08/31 07:24:07;;;;;;;14.38;9.05;;;;;;;-145.63;45.72;38615.53;5017080;28;20097;-66
2023/08/31 07:26:32;;;;;;;14.13;8.88;;;;;;;-145.63;45.87;38570.56;5020207;28;20132;-66
2023/08/31 07:28:58;;;;;;;13.55;9.45;;;;;;;-145.63;45.67;38590.13;5018013;28;20022;-67
2023/08/31 07:31:23;;;;;;;11.73;8.80;;;;;;;-145.63;45.55;38570.56;5016850;28;20065;-68
2023/08/31 07:33:49;;;;;;;11.43;8.85;;;;;;;-145.63;45.58;38533.41;5014836;28;20026;-67
2023/08/31 07:36:15;;;;;;;13.15;8.90;;;;;;;-145.63;45.58;38515.81;5019742;28;20018;-67
2023/08/31 07:38:40;;;;;;;11.18;8.82;;;;;;;-145.63;45.04;38545.16;5015051;28;20041;-68
2023/08/31 07:41:06;;;;;;;12.98;9.65;;;;;;;-145.63;44.92;38562.75;5016865;28;20030;-67
2023/08/31 07:43:32;;;;;;;12.57;8.77;;;;;;;-145.63;45.01;38482.59;5028320;28;20026;-67
2023/08/31 07:45:57;;;;;;;15.63;9.23;;;;;;;-145.63;44.48;38523.66;5035062;28;20041;-66
2023/08/31 07:48:23;;;;;;;13.65;9.32;;;;;;;-145.63;44.54;38515.81;5029645;28;20345;-67
2023/08/31 07:50:48;;;;;;;12.52;8.82;;;;;;;-145.63;44.50;38494.31;5033617;28;20018;-67
2023/08/31 07:53:14;;;;;;;11.77;9.07;;;;;;;-145.63;43.85;38508.00;5028134;28;20026;-68
2023/08/31 07:55:40;;;;;;;16.77;9.52;;;;;;;-145.63;43.71;38525.59;5034722;28;20089;-68
2023/08/31 07:58:06;;;;;;;21.85;9.57;;;;;;;-145.63;44.21;38486.50;5039295;28;20072;-66
2023/08/31 08:00:32;;;;;;;14.13;9.27;;;;;;;-145.63;43.66;38466.94;5024814;28;20033;-67
2023/08/31 08:02:57;;;;;;;13.60;8.85;;;;;;;-145.63;44.09;38437.59;5028517;28;20037;-66
2023/08/31 08:05:23;;;;;;;14.18;8.98;;;;;;;-145.63;43.20;38466.94;5022213;28;20033;-67
2023/08/31 08:07:48;;;;;;;12.50;8.65;;;;;;;-145.63;43.17;38414.16;5015035;28;20021;-67
2023/08/31 08:10:14;;;;;;;13.15;8.65;;;;;;;-145.63;43.02;38414.16;5029247;28;20025;-66
2023/08/31 08:12:43;;;;;;;11.07;7.20;;;;;;;-145.63;42.70;38378.94;5016078;28;20037;-67
2023/08/31 08:15:09;;;;;;;16.67;7.68;;;;;;;-145.63;42.60;38404.38;5020819;28;20084;-70
2023/08/31 08:17:35;;;;;;;9.27;7.07;;;;;;;-145.63;42.24;38337.88;5017790;28;20021;-68
2023/08/31 08:20:00;;;;;;;9.77;6.55;;;;;;;-145.63;42.51;38373.09;5017267;28;20193;-67
2023/08/31 08:22:26;;;;;;;15.40;9.50;;;;;;;-145.63;40.74;38318.34;5016123;28;20034;-71
2023/08/31 08:24:51;;;;;;;11.07;7.75;;;;;;;-145.63;41.72;38310.50;5022384;28;20060;-66
2023/08/31 08:27:20;;;;;;;15.48;7.40;;;;;;;-145.63;41.38;38298.78;5018456;28;20337;-67
2023/08/31 08:29:46;;;;;;;12.32;7.47;;;;;;;-145.63;41.20;38322.25;5020667;28;20125;-67
2023/08/31 08:32:12;;;;;;;11.55;7.25;;;;;;;-145.63;41.17;38283.16;5016996;28;20042;-67
2023/08/31 08:34:38;;;;;;;13.50;8.32;;;;;;;-145.63;39.96;38290.97;5020583;28;20046;-67
2023/08/31 08:37:03;;;;;;;11.02;7.43;;;;;;;-145.63;39.99;38308.56;5021132;28;20045;-67
2023/08/31 08:39:29;;;;;;;13.48;6.97;;;;;;;-145.63;40.22;38226.44;5021154;28;20072;-67
2023/08/31 08:41:58;;;;;;;10.43;7.18;;;;;;;-145.63;40.04;38226.44;5017390;28;20036;-67
2023/08/31 08:44:25;;;;;;;9.30;7.00;;;;;;;-145.63;39.91;38259.69;5019067;28;20034;-67
2023/08/31 08:46:51;;;;;;;12.13;8.13;;;;;;;-145.63;39.36;38234.25;5021447;28;20026;-67
2023/08/31 08:49:18;;;;;;;13.23;7.32;;;;;;;-145.63;39.13;38234.25;5019471;28;20368;-67
2023/08/31 08:51:46;;;;;;;14.05;7.80;;;;;;;-145.63;38.60;38150.19;5024963;28;20060;-68
2023/08/31 08:54:13;;;;;;;9.82;6.93;;;;;;;-145.63;38.78;38085.66;5024434;28;20137;-67
2023/08/31 08:56:39;;;;;;;11.82;7.53;;;;;;;-145.63;37.48;38093.50;5032391;28;20032;-69
2023/08/31 08:59:05;;;;;;;11.27;7.28;;;;;;;-145.63;37.55;38015.28;5027175;28;20037;-68
2023/08/31 09:01:34;;;;;;;13.07;7.28;;;;;;;-145.63;35.82;37972.28;5011703;28;20033;-66
2023/08/31 09:04:00;;;;;;;15.50;7.20;;;;;;;-145.63;35.21;37985.97;5026174;28;20026;-66
2023/08/31 09:06:27;;;;;;;10.15;6.10;;;;;;;-145.63;35.55;37948.81;5016404;28;20053;-66
2023/08/31 09:08:56;;;;;;;15.85;7.07;;;;;;;-145.63;34.55;37970.31;5033451;28;20030;-67
2023/08/31 09:11:23;;;;;;;12.27;6.57;;;;;;;-145.63;34.40;37923.41;5027384;28;20028;-67
2023/08/31 09:13:50;;;;;;;10.98;7.05;;;;;;;-145.63;35.05;37925.34;5025897;28;20021;-67
2023/08/31 09:16:31;;;;;;;13.65;6.97;;;;;;;-145.63;34.70;38019.19;5036413;28;20040;-66
2023/08/31 09:18:57;;;;;;;11.20;6.30;;;;;;;-145.63;34.59;38023.09;5037760;28;20194;-67
2023/08/31 09:21:36;;;;;;;11.23;6.70;;;;;;;-145.63;34.73;38050.47;5038499;28;20066;-68
2023/08/31 09:24:05;;;;;;;8.63;6.45;;;;;;;-145.63;35.19;37894.06;5037110;28;20600;-67
2023/08/31 09:26:38;;;;;;;11.70;6.60;;;;;;;-145.63;34.58;38027.00;5040582;28;20040;-67
2023/08/31 09:29:07;;;;;;;7.80;6.15;;;;;;;-145.63;34.84;37903.84;5026034;28;20257;-67
2023/08/31 09:31:33;;;;;;;10.75;6.75;;;;;;;-145.63;34.78;37886.25;5025886;28;20033;-68
2023/08/31 09:33:59;;;;;;;11.77;7.28;;;;;;;-145.63;34.71;37972.28;5030690;28;20080;-68
2023/08/31 09:36:26;;;;;;;11.75;6.75;;;;;;;-145.63;34.97;38007.47;5018085;28;20310;-67
2023/08/31 09:38:51;;;;;;;15.57;6.93;;;;;;;-145.63;34.72;37964.44;5027600;28;20083;-67
2023/08/31 09:41:17;;;;;;;11.75;6.93;;;;;;;-145.63;36.02;37944.91;5027662;28;20049;-67
2023/08/31 09:43:43;;;;;;;11.52;6.70;;;;;;;-145.63;35.20;37962.50;5019145;28;20040;-67
2023/08/31 09:46:10;;;;;;;12.48;6.10;;;;;;;-145.63;35.35;37999.66;5042533;28;20041;-68
2023/08/31 09:48:38;;;;;;;12.45;6.75;;;;;;;-145.63;35.97;37948.81;5030109;28;20109;-68
2023/08/31 09:51:04;;;;;;;13.75;6.57;;;;;;;-145.63;35.15;37982.03;5027821;28;20041;-67
2023/08/31 09:53:31;;;;;;;10.38;6.47;;;;;;;-145.63;34.78;37982.03;5025019;28;20055;-68
2023/08/31 09:55:57;;;;;;;13.27;7.40;;;;;;;-145.63;35.51;38034.84;5023765;28;20036;-67
2023/08/31 09:58:23;;;;;;;11.38;6.40;;;;;;;-145.63;35.51;38081.75;5024291;28;20029;-68
2023/08/31 10:00:50;;;;;;;14.35;6.82;;;;;;;-145.63;36.56;38013.31;5025320;28;20133;-67
2023/08/31 10:03:16;;;;;;;10.07;6.35;;;;;;;-145.63;35.27;37984.00;5032198;28;20037;-67
2023/08/31 10:05:48;;;;;;;10.65;6.32;;;;;;;-145.63;35.40;37956.63;5025842;28;20503;-68
2023/08/31 10:08:14;;;;;;;10.20;5.65;;;;;;;-145.63;35.07;37952.72;5025848;28;20057;-67
2023/08/31 10:10:41;;;;;;;13.50;6.35;;;;;;;-145.63;34.45;37946.84;5025495;28;20049;-68
2023/08/31 10:13:07;;;;;;;8.70;6.03;;;;;;;-145.63;34.70;37956.63;5024804;28;20352;-68
2023/08/31 10:15:35;;;;;;;10.15;6.13;;;;;;;-145.63;35.42;37976.19;5017277;28;20018;-68
2023/08/31 10:18:02;;;;;;;8.70;6.03;;;;;;;-145.63;34.09;37939.03;5023603;28;20055;-68
2023/08/31 10:20:31;;;;;;;11.75;6.15;;;;;;;-145.63;33.87;37933.16;5024526;28;20033;-68
2023/08/31 10:23:05;;;;;;;12.52;5.85;;;;;;;-145.63;33.06;37993.78;5023757;28;20049;-67
2023/08/31 10:25:45;;;;;;;10.25;6.13;;;;;;;-145.63;33.64;37907.75;5025904;28;20037;-68
2023/08/31 10:28:25;;;;;;;10.95;6.47;;;;;;;-145.63;33.73;38030.94;5026309;28;20022;-67
2023/08/31 10:31:17;;;;;;;9.77;6.30;;;;;;;-145.63;34.28;38007.47;5036936;28;20030;-66
2023/08/31 10:33:54;;;;;;;10.93;6.18;;;;;;;-145.63;34.36;38007.47;5025552;28;20314;-66
2023/08/31 10:36:20;;;;;;;7.45;5.57;;;;;;;-145.63;34.25;38021.16;5042090;28;20025;-67
2023/08/31 10:38:58;;;;;;;6.75;5.78;;;;;;;-145.63;33.97;37987.91;5037612;28;20054;-67
2023/08/31 10:41:25;;;;;;;10.43;6.38;;;;;;;-145.63;33.64;37933.16;5035208;28;20033;-68
2023/08/31 10:43:58;;;;;;;8.32;5.72;;;;;;;-145.63;33.36;37958.59;5043906;28;20209;-67
2023/08/31 10:46:34;;;;;;;7.35;5.90;;;;;;;-145.63;34.02;37935.13;5028340;28;20223;-67
2023/08/31 10:49:09;;;;;;;11.25;6.43;;;;;;;-145.63;33.59;37901.88;5029791;28;20383;-66
2023/08/31 10:51:36;;;;;;;8.27;5.85;;;;;;;-145.63;34.15;37903.84;5005764;28;20034;-65
2023/08/31 10:54:20;;;;;;;12.35;6.80;;;;;;;-145.63;33.46;37935.13;5025263;28;20034;-66
2023/08/31 10:57:05;;;;;;;10.52;5.93;;;;;;;-145.63;33.57;37933.16;5017068;28;20093;-67
2023/08/31 10:59:50;;;;;;;15.57;6.97;;;;;;;-145.63;32.95;37917.53;5024888;28;20030;-67
2023/08/31 11:02:35;;;;;;;12.63;6.60;;;;;;;-145.63;32.99;37941.00;5014320;28;20325;-66
2023/08/31 11:05:03;;;;;;;10.55;6.20;;;;;;;-145.63;32.85;37882.34;5033496;28;20019;-67